Time;durP1;ratioP1;P1;durP2;ratioP2;P2;SDS_P1;SDS_P2;PMS_P1;PMS_P2;Temp;Humidity;BMP_temperature;BMP_pressure;BME280_temperature;BME280_humidity;BME280_pressure;Samples;Min_cycle;Max_cycle;Signal;HPM_P1;HPM_P2
2021/08/06 00:00:40;;;;;;;2.47;2.08;;;;;18.40;99693.00;;;;10535380;28;20192;-79
2021/08/06 00:05:42;;;;;;;2.80;1.70;;;;;18.50;99696.00;;;;10551053;28;20722;-78
2021/08/06 00:10:44;;;;;;;3.15;1.60;;;;;18.50;99697.00;;;;10535091;28;20200;-79
2021/08/06 00:15:46;;;;;;;5.72;2.42;;;;;18.60;99688.00;;;;10518711;28;20203;-79
2021/08/06 00:20:48;;;;;;;3.28;1.73;;;;;18.60;99685.00;;;;10551276;28;20646;-79
2021/08/06 00:25:50;;;;;;;2.80;2.15;;;;;18.60;99688.00;;;;10551602;28;20189;-79
2021/08/06 00:30:52;;;;;;;2.22;1.70;;;;;18.60;99681.00;;;;10567219;28;20204;-79
2021/08/06 00:35:54;;;;;;;4.10;1.73;;;;;18.50;99686.00;;;;10549206;28;20232;-79
2021/08/06 00:40:57;;;;;;;1.60;1.50;;;;;18.40;99668.00;;;;10533645;28;20196;-79
2021/08/06 00:46:02;;;;;;;2.03;1.40;;;;;18.40;99662.00;;;;10550240;28;20238;-79
2021/08/06 00:51:09;;;;;;;3.58;1.90;;;;;18.40;99654.00;;;;10550578;28;20837;-79
2021/08/06 00:56:12;;;;;;;2.95;1.65;;;;;18.30;99660.00;;;;10522927;28;20196;-79
2021/08/06 01:01:14;;;;;;;2.13;1.48;;;;;18.20;99650.00;;;;10558272;28;20220;-79
2021/08/06 01:06:51;;;;;;;3.92;1.80;;;;;18.20;99649.00;;;;10559492;28;20229;-80
2021/08/06 01:12:01;;;;;;;2.58;1.80;;;;;18.10;99647.00;;;;10574753;28;20264;-79
2021/08/06 01:17:11;;;;;;;2.35;1.80;;;;;18.10;99643.00;;;;10557175;28;20192;-80
2021/08/06 01:22:20;;;;;;;1.70;1.60;;;;;18.20;99641.00;;;;10558170;28;20227;-79
2021/08/06 01:27:24;;;;;;;2.75;2.00;;;;;18.30;99630.00;;;;10529447;28;20548;-79
2021/08/06 01:32:31;;;;;;;2.83;1.85;;;;;18.30;99634.00;;;;10498487;28;20216;-80
2021/08/06 01:37:36;;;;;;;1.45;1.35;;;;;18.30;99626.00;;;;10549487;28;20189;-80
2021/08/06 01:42:50;;;;;;;2.35;1.75;;;;;18.10;99627.00;;;;10515113;28;20195;-80
2021/08/06 01:47:54;;;;;;;1.90;1.80;;;;;18.00;99616.00;;;;10534929;28;20192;-79
2021/08/06 01:53:15;;;;;;;2.95;1.90;;;;;17.90;99619.00;;;;10542785;28;20204;-80
2021/08/06 01:58:24;;;;;;;2.83;1.90;;;;;17.90;99620.00;;;;10541029;28;20192;-79
2021/08/06 02:03:31;;;;;;;4.15;1.90;;;;;17.80;99611.00;;;;10547076;28;20644;-80
2021/08/06 02:08:53;;;;;;;2.50;1.98;;;;;17.70;99604.00;;;;10542760;28;20204;-78
2021/08/06 02:14:01;;;;;;;1.88;1.70;;;;;17.60;99605.00;;;;10540408;28;20208;-80
2021/08/06 02:19:05;;;;;;;2.35;1.63;;;;;17.40;99603.00;;;;10542457;28;20196;-83
2021/08/06 02:24:11;;;;;;;5.90;1.95;;;;;17.30;99597.00;;;;10573149;27;20638;-85
2021/08/06 02:29:17;;;;;;;2.45;2.05;;;;;17.30;99599.00;;;;10610928;27;20253;-84
2021/08/06 02:34:22;;;;;;;4.43;2.53;;;;;17.20;99598.00;;;;10561254;27;20238;-82
2021/08/06 02:39:26;;;;;;;3.75;2.53;;;;;17.20;99590.00;;;;10554263;28;20280;-80
2021/08/06 02:44:28;;;;;;;3.05;2.03;;;;;17.20;99589.00;;;;10552461;28;20211;-80
2021/08/06 02:49:33;;;;;;;2.33;2.13;;;;;17.20;99598.00;;;;10552838;28;20192;-81
2021/08/06 02:54:35;;;;;;;2.45;2.05;;;;;17.20;99594.00;;;;10534817;27;20218;-79
2021/08/06 02:59:38;;;;;;;2.25;1.95;;;;;17.20;99599.00;;;;10561295;28;20215;-78
2021/08/06 03:04:40;;;;;;;3.13;1.83;;;;;17.20;99587.00;;;;10545920;28;20184;-79
2021/08/06 03:09:47;;;;;;;2.92;2.22;;;;;17.20;99588.00;;;;10547066;28;20188;-78
2021/08/06 03:14:51;;;;;;;3.85;2.08;;;;;17.20;99580.00;;;;10545407;28;20262;-79
2021/08/06 03:19:54;;;;;;;3.13;2.13;;;;;17.20;99591.00;;;;10544340;28;20180;-78
2021/08/06 03:24:56;;;;;;;5.72;2.85;;;;;17.20;99587.00;;;;10526430;28;20212;-78
2021/08/06 03:29:59;;;;;;;5.45;2.58;;;;;17.20;99593.00;;;;10526161;28;20196;-78
2021/08/06 03:35:07;;;;;;;4.00;2.88;;;;;17.20;99634.00;;;;10556614;28;20222;-80
2021/08/06 03:40:12;;;;;;;6.78;2.60;;;;;17.10;99635.00;;;;10565253;28;20210;-80
2021/08/06 03:45:15;;;;;;;3.83;2.13;;;;;16.60;99642.00;;;;10543581;28;20291;-80
2021/08/06 03:50:18;;;;;;;4.47;2.25;;;;;16.30;99628.00;;;;10561442;28;20207;-80
2021/08/06 03:55:20;;;;;;;6.00;2.23;;;;;16.20;99622.00;;;;10555773;27;20208;-79
2021/08/06 04:00:24;;;;;;;4.47;2.47;;;;;16.20;99631.00;;;;10582651;27;20187;-79
2021/08/06 04:05:26;;;;;;;3.10;2.67;;;;;16.20;99637.00;;;;10565057;27;20665;-79
2021/08/06 04:10:29;;;;;;;5.83;3.07;;;;;16.20;99642.00;;;;10599600;28;20187;-79
2021/08/06 04:15:31;;;;;;;3.97;2.73;;;;;16.20;99645.00;;;;10597730;28;20231;-79
2021/08/06 04:20:33;;;;;;;4.63;2.50;;;;;16.20;99643.00;;;;10563199;28;20195;-80
2021/08/06 04:25:36;;;;;;;5.47;3.00;;;;;16.10;99654.00;;;;10510553;28;20197;-79
2021/08/06 04:30:37;;;;;;;4.00;3.00;;;;;16.20;99646.00;;;;10501233;28;20208;-80
2021/08/06 04:35:40;;;;;;;7.90;3.13;;;;;16.10;99651.00;;;;10520612;28;20242;-79
2021/08/06 04:40:45;;;;;;;3.80;3.13;;;;;16.10;99655.00;;;;10535638;28;20185;-79
2021/08/06 04:45:48;;;;;;;6.13;3.00;;;;;16.10;99660.00;;;;10537747;28;20207;-79
2021/08/06 04:50:51;;;;;;;7.00;3.13;;;;;16.10;99663.00;;;;10543874;28;20202;-79
2021/08/06 04:55:53;;;;;;;5.03;3.30;;;;;16.20;99672.00;;;;10543182;28;20219;-80
2021/08/06 05:00:55;;;;;;;6.47;3.33;;;;;16.20;99673.00;;;;10524880;28;20196;-79
2021/08/06 05:05:57;;;;;;;4.50;3.30;;;;;16.30;99680.00;;;;10558371;28;20297;-79
2021/08/06 05:11:00;;;;;;;8.70;3.87;;;;;16.40;99676.00;;;;10575345;28;20539;-79
2021/08/06 05:16:02;;;;;;;6.63;4.10;;;;;16.60;99676.00;;;;10541469;28;20709;-79
2021/08/06 05:21:04;;;;;;;9.90;3.30;;;;;16.70;99680.00;;;;10558770;28;20184;-78
2021/08/06 05:26:09;;;;;;;6.85;3.05;;;;;16.70;99686.00;;;;10541534;28;20188;-79
2021/08/06 05:31:11;;;;;;;5.55;3.20;;;;;16.70;99698.00;;;;10541699;28;20717;-79
2021/08/06 05:36:14;;;;;;;9.77;4.30;;;;;16.70;99692.00;;;;10557331;28;20250;-79
2021/08/06 05:41:17;;;;;;;6.53;3.83;;;;;16.80;99700.00;;;;10573561;28;20188;-79
2021/08/06 05:46:19;;;;;;;5.50;3.65;;;;;17.00;99694.00;;;;10556958;28;20203;-79
2021/08/06 05:51:21;;;;;;;9.23;3.85;;;;;17.00;99715.00;;;;10541053;28;20203;-80
2021/08/06 05:56:23;;;;;;;6.20;4.35;;;;;17.10;99706.00;;;;10515468;28;20216;-78
2021/08/06 06:01:27;;;;;;;5.55;3.50;;;;;17.90;99730.00;;;;10499428;28;20200;-80
2021/08/06 06:06:59;;;;;;;7.50;4.10;;;;;17.80;99736.00;;;;10490214;28;20360;-80
2021/08/06 06:12:03;;;;;;;6.43;4.07;;;;;18.10;99737.00;;;;10514938;28;20233;-79
2021/08/06 06:17:05;;;;;;;7.07;3.83;;;;;18.30;99748.00;;;;10497586;28;20192;-78
2021/08/06 06:22:08;;;;;;;6.50;3.88;;;;;18.40;99734.00;;;;10514669;28;20240;-79
2021/08/06 06:27:10;;;;;;;7.05;3.78;;;;;18.70;99742.00;;;;10520562;28;20547;-79
2021/08/06 06:32:12;;;;;;;8.80;3.90;;;;;18.80;99749.00;;;;10571910;28;20216;-78
2021/08/06 06:37:14;;;;;;;11.27;3.42;;;;;18.90;99754.00;;;;10531254;28;20223;-79
2021/08/06 06:42:16;;;;;;;6.88;3.67;;;;;18.80;99750.00;;;;10497111;28;20200;-79
2021/08/06 06:47:18;;;;;;;4.47;2.50;;;;;18.70;99753.00;;;;10545299;28;20223;-79
2021/08/06 06:52:20;;;;;;;7.38;2.47;;;;;18.60;99756.00;;;;10521570;28;20204;-78
2021/08/06 06:57:22;;;;;;;6.20;2.85;;;;;18.40;99755.00;;;;10496087;28;20193;-79
2021/08/06 07:02:25;;;;;;;6.82;3.35;;;;;18.90;99748.00;;;;10512927;28;20196;-79
2021/08/06 07:07:27;;;;;;;11.70;3.60;;;;;18.90;99757.00;;;;10495600;28;20189;-79
2021/08/06 07:12:29;;;;;;;13.70;4.22;;;;;18.50;99766.00;;;;10511991;28;20200;-79
2021/08/06 07:17:32;;;;;;;32.80;6.40;;;;;18.80;99756.00;;;;10495044;28;20199;-78
2021/08/06 07:22:35;;;;;;;7.15;2.67;;;;;20.00;99774.00;;;;10510821;28;20243;-78
2021/08/06 07:27:41;;;;;;;6.60;2.20;;;;;19.80;99791.00;;;;10518886;28;20196;-79
2021/08/06 07:32:43;;;;;;;4.57;2.20;;;;;19.80;99789.00;;;;10558802;28;20716;-79
2021/08/06 07:37:46;;;;;;;5.95;1.95;;;;;19.40;99791.00;;;;10552063;28;20275;-79
2021/08/06 07:42:50;;;;;;;10.10;3.13;;;;;20.20;99790.00;;;;10551353;28;20201;-78
2021/08/06 07:47:53;;;;;;;12.85;2.92;;;;;20.90;99822.00;;;;10525775;28;20204;-79
2021/08/06 07:52:55;;;;;;;3.75;1.80;;;;;21.40;99817.00;;;;10526010;28;20204;-79
2021/08/06 07:57:59;;;;;;;14.32;2.75;;;;;21.70;99833.00;;;;10491948;28;20544;-79
2021/08/06 08:03:02;;;;;;;5.03;2.00;;;;;21.20;99845.00;;;;10524990;28;20204;-78
2021/08/06 08:08:08;;;;;;;7.20;1.95;;;;;20.70;99835.00;;;;10534465;28;20192;-79
2021/08/06 08:13:12;;;;;;;3.47;2.03;;;;;20.30;99828.00;;;;10550463;28;20212;-79
2021/08/06 08:18:16;;;;;;;7.03;1.65;;;;;20.50;99831.00;;;;10533412;28;20204;-78
2021/08/06 08:23:19;;;;;;;3.63;2.00;;;;;20.60;99826.00;;;;10550755;28;20238;-78
2021/08/06 08:28:24;;;;;;;8.95;2.08;;;;;21.10;99821.00;;;;10550921;28;20184;-78
2021/08/06 08:33:27;;;;;;;2.05;1.67;;;;;21.80;99834.00;;;;10551268;28;20208;-78
2021/08/06 08:38:32;;;;;;;2.35;1.98;;;;;22.10;99829.00;;;;10518540;28;20188;-78
2021/08/06 08:43:34;;;;;;;4.78;2.30;;;;;22.70;99824.00;;;;10534074;28;20200;-78
2021/08/06 08:48:37;;;;;;;3.67;1.70;;;;;24.20;99836.00;;;;10535469;28;20224;-78
2021/08/06 08:53:39;;;;;;;6.18;1.45;;;;;23.90;99842.00;;;;10557353;28;20196;-78
2021/08/06 08:58:41;;;;;;;2.53;1.60;;;;;23.00;99844.00;;;;10567193;28;20199;-78
2021/08/06 09:03:47;;;;;;;3.53;1.80;;;;;22.70;99844.00;;;;10549782;28;20220;-79
2021/08/06 09:09:10;;;;;;;4.20;1.98;;;;;22.00;99853.00;;;;10566283;28;20188;-79
2021/08/06 09:14:32;;;;;;;3.28;1.83;;;;;21.60;99837.00;;;;10586221;28;20210;-79
2021/08/06 09:20:08;;;;;;;5.32;2.05;;;;;22.10;99842.00;;;;10557779;28;20188;-78
2021/08/06 09:25:14;;;;;;;2.78;1.52;;;;;22.00;99842.00;;;;10574023;28;20267;-79
2021/08/06 09:30:34;;;;;;;2.78;1.33;;;;;21.90;99838.00;;;;10540426;28;20192;-79
2021/08/06 09:35:37;;;;;;;3.53;1.50;;;;;22.40;99840.00;;;;10573702;28;20208;-79
2021/08/06 09:40:40;;;;;;;4.05;1.60;;;;;21.80;99840.00;;;;10557839;28;20200;-80
2021/08/06 09:45:42;;;;;;;1.38;1.27;;;;;22.00;99850.00;;;;10576024;28;20211;-78
2021/08/06 09:50:46;;;;;;;2.42;1.27;;;;;22.60;99849.00;;;;10525309;28;20207;-79
2021/08/06 09:55:50;;;;;;;3.00;1.00;;;;;22.20;99838.00;;;;10540771;28;20240;-80
2021/08/06 10:00:53;;;;;;;2.30;0.98;;;;;23.20;99844.00;;;;10524477;28;20196;-79
2021/08/06 10:06:17;;;;;;;5.35;1.20;;;;;23.50;99853.00;;;;10533726;28;20239;-80
2021/08/06 10:11:18;;;;;;;2.47;1.00;;;;;23.20;99855.00;;;;10558109;28;20196;-80
2021/08/06 10:16:20;;;;;;;2.95;1.50;;;;;22.50;99866.00;;;;10521114;28;20308;-80
2021/08/06 10:21:23;;;;;;;3.28;1.25;;;;;21.50;99861.00;;;;10545932;28;20205;-80
2021/08/06 10:26:25;;;;;;;2.33;1.38;;;;;21.70;99838.00;;;;10511089;28;20216;-80
2021/08/06 10:31:27;;;;;;;4.35;1.88;;;;;23.00;99832.00;;;;10521547;28;20188;-79
2021/08/06 10:36:47;;;;;;;3.28;1.52;;;;;24.40;99828.00;;;;10559298;28;20671;-79
2021/08/06 10:41:50;;;;;;;3.85;1.08;;;;;25.20;99824.00;;;;10548924;28;20205;-80
2021/08/06 10:47:02;;;;;;;2.97;1.10;;;;;25.30;99833.00;;;;10519778;28;20201;-80
2021/08/06 10:52:18;;;;;;;2.03;1.08;;;;;25.80;99834.00;;;;10514769;28;20258;-79
2021/08/06 10:57:27;;;;;;;1.88;1.30;;;;;26.20;99827.00;;;;10498664;28;20192;-80
2021/08/06 11:02:33;;;;;;;1.63;1.10;;;;;26.50;99833.00;;;;10482063;28;20197;-80
2021/08/06 11:07:37;;;;;;;3.03;0.88;;;;;26.00;99826.00;;;;10538049;28;20273;-79
2021/08/06 11:12:39;;;;;;;6.55;1.67;;;;;24.50;99830.00;;;;10530693;28;20206;-80
2021/08/06 11:17:44;;;;;;;4.57;1.80;;;;;22.50;99876.00;;;;10561072;28;20196;-82
2021/08/06 11:22:50;;;;;;;2.95;1.10;;;;;21.80;99847.00;;;;10552415;28;20288;-82
2021/08/06 11:27:56;;;;;;;2.20;1.30;;;;;22.90;99840.00;;;;10548102;28;20518;-80
2021/08/06 11:33:02;;;;;;;4.88;1.60;;;;;23.40;99835.00;;;;10528462;28;20216;-80
2021/08/06 11:38:09;;;;;;;2.80;1.38;;;;;23.30;99841.00;;;;10502878;28;20216;-80
2021/08/06 11:43:14;;;;;;;3.60;1.00;;;;;24.40;99829.00;;;;10517473;28;20200;-79
2021/08/06 11:48:17;;;;;;;2.40;1.02;;;;;24.80;99832.00;;;;10499360;28;20695;-78
2021/08/06 11:53:28;;;;;;;2.83;1.10;;;;;25.40;99822.00;;;;10555340;28;20559;-80
2021/08/06 11:58:31;;;;;;;3.45;1.33;;;;;26.10;99822.00;;;;10540842;28;20192;-79
2021/08/06 12:03:44;;;;;;;2.40;0.95;;;;;26.00;99834.00;;;;10540460;28;20184;-79
2021/08/06 12:08:54;;;;;;;2.30;1.20;;;;;24.30;99831.00;;;;10540345;28;20681;-79
2021/08/06 12:14:00;;;;;;;5.28;1.02;;;;;23.90;99830.00;;;;10558115;28;20247;-79
2021/08/06 12:19:03;;;;;;;3.63;0.88;;;;;25.30;99836.00;;;;10572843;28;20184;-79
2021/08/06 12:24:10;;;;;;;3.97;0.90;;;;;24.40;99840.00;;;;10539321;28;20184;-79
2021/08/06 12:29:21;;;;;;;3.40;0.93;;;;;25.60;99841.00;;;;10537493;28;20204;-79
2021/08/06 12:34:25;;;;;;;2.92;1.15;;;;;25.00;99842.00;;;;10530397;28;20587;-79
2021/08/06 12:39:30;;;;;;;1.98;1.00;;;;;25.50;99829.00;;;;10512655;28;20193;-80
2021/08/06 12:44:32;;;;;;;0.93;0.70;;;;;26.10;99838.00;;;;10524295;28;20192;-79
2021/08/06 12:49:56;;;;;;;0.93;0.65;;;;;26.50;99825.00;;;;10538251;28;20940;-79
2021/08/06 12:55:01;;;;;;;2.20;0.82;;;;;26.20;99817.00;;;;10543047;28;20258;-79
2021/08/06 13:00:33;;;;;;;2.80;0.95;;;;;26.10;99812.00;;;;10559695;28;20180;-79
2021/08/06 13:06:00;;;;;;;1.55;0.77;;;;;25.70;99805.00;;;;10560329;28;20191;-79
2021/08/06 13:11:02;;;;;;;1.08;0.80;;;;;26.30;99821.00;;;;10543038;28;20238;-79
2021/08/06 13:16:06;;;;;;;2.35;1.05;;;;;25.70;99812.00;;;;10558856;28;20212;-80
2021/08/06 13:21:10;;;;;;;2.60;0.90;;;;;26.10;99823.00;;;;10517272;28;20197;-80
2021/08/06 13:26:12;;;;;;;2.15;1.05;;;;;25.40;99824.00;;;;10515800;28;20254;-79
2021/08/06 13:31:14;;;;;;;2.35;1.30;;;;;24.60;99831.00;;;;10515455;28;20987;-79
2021/08/06 13:36:16;;;;;;;1.73;1.08;;;;;25.20;99802.00;;;;10515125;28;20213;-80
2021/08/06 13:41:18;;;;;;;2.70;0.80;;;;;25.60;99820.00;;;;10556680;28;20208;-80
2021/08/06 13:46:20;;;;;;;1.70;0.75;;;;;24.90;99819.00;;;;10557788;28;20188;-80
2021/08/06 13:51:22;;;;;;;3.03;0.90;;;;;24.10;99803.00;;;;10540379;28;20188;-80
2021/08/06 13:56:24;;;;;;;3.78;0.98;;;;;24.30;99813.00;;;;10591713;27;20242;-80
2021/08/06 14:01:26;;;;;;;1.95;0.93;;;;;25.00;99817.00;;;;10581505;27;20202;-80
2021/08/06 14:06:28;;;;;;;1.45;0.90;;;;;25.90;99813.00;;;;10598730;27;20625;-79
2021/08/06 14:11:31;;;;;;;2.15;0.80;;;;;26.60;99826.00;;;;10599109;27;20650;-79
2021/08/06 14:16:33;;;;;;;0.80;0.80;;;;;27.50;99826.00;;;;10565477;27;20599;-79
2021/08/06 14:21:35;;;;;;;1.92;0.90;;;;;26.50;99841.00;;;;10513986;28;20203;-80
2021/08/06 14:26:39;;;;;;;1.45;0.70;;;;;28.00;99842.00;;;;10514102;28;20246;-80
2021/08/06 14:31:41;;;;;;;1.05;0.73;;;;;25.70;99844.00;;;;10530838;28;20556;-79
2021/08/06 14:36:44;;;;;;;2.17;0.82;;;;;24.60;99846.00;;;;10550469;28;20212;-79
2021/08/06 14:41:46;;;;;;;2.25;0.90;;;;;25.20;99824.00;;;;10539477;28;20628;-79
2021/08/06 14:46:48;;;;;;;2.95;1.10;;;;;28.10;99843.00;;;;10554807;28;20184;-79
2021/08/06 14:51:50;;;;;;;1.55;0.80;;;;;27.30;99819.00;;;;10521781;28;20196;-79
2021/08/06 14:56:52;;;;;;;0.70;0.70;;;;;29.30;99817.00;;;;10554979;28;20200;-80
2021/08/06 15:01:55;;;;;;;1.00;0.90;;;;;25.90;99844.00;;;;10538993;28;20416;-79
2021/08/06 15:06:58;;;;;;;2.03;1.08;;;;;24.40;99839.00;;;;10521984;28;20195;-80
2021/08/06 15:12:00;;;;;;;1.85;1.40;;;;;23.60;99847.00;;;;10496847;28;20648;-79
2021/08/06 15:17:03;;;;;;;2.35;0.90;;;;;25.00;99848.00;;;;10512993;28;20216;-79
2021/08/06 15:22:05;;;;;;;1.55;1.00;;;;;27.40;99845.00;;;;10528260;28;20193;-79
2021/08/06 15:27:16;;;;;;;1.63;0.90;;;;;25.80;99856.00;;;;10521430;28;20203;-80
2021/08/06 15:32:18;;;;;;;2.63;1.20;;;;;25.30;99853.00;;;;10570324;28;20204;-79
2021/08/06 15:37:20;;;;;;;1.80;1.17;;;;;24.80;99862.00;;;;10527850;28;20240;-78
2021/08/06 15:42:23;;;;;;;4.20;1.23;;;;;25.20;99854.00;;;;10493864;28;20212;-78
2021/08/06 15:47:25;;;;;;;3.63;1.20;;;;;24.70;99855.00;;;;10492905;28;20184;-79
2021/08/06 15:52:27;;;;;;;2.28;1.10;;;;;24.10;99861.00;;;;10510511;28;20193;-79
2021/08/06 15:57:29;;;;;;;2.42;1.27;;;;;24.20;99861.00;;;;10510174;28;20219;-79
2021/08/06 16:02:31;;;;;;;3.63;1.90;;;;;24.20;99865.00;;;;10509736;28;20298;-78
2021/08/06 16:07:33;;;;;;;4.00;1.80;;;;;24.20;99874.00;;;;10526459;28;20185;-78
2021/08/06 16:12:35;;;;;;;5.82;1.77;;;;;23.90;99872.00;;;;10493532;28;20199;-79
2021/08/06 16:17:37;;;;;;;3.60;1.33;;;;;23.40;99870.00;;;;10526840;28;20243;-79
2021/08/06 16:22:42;;;;;;;4.53;1.60;;;;;23.70;99859.00;;;;10490191;28;20201;-79
2021/08/06 16:27:44;;;;;;;4.50;1.77;;;;;23.60;99856.00;;;;10516847;28;20654;-79
2021/08/06 16:32:47;;;;;;;3.05;1.10;;;;;23.70;99853.00;;;;10534842;28;20211;-79
2021/08/06 16:37:51;;;;;;;5.32;1.95;;;;;23.30;99856.00;;;;10517715;28;20664;-79
2021/08/06 16:42:53;;;;;;;2.30;1.70;;;;;23.30;99852.00;;;;10483834;28;20208;-79
2021/08/06 16:47:55;;;;;;;4.35;1.60;;;;;23.20;99858.00;;;;10501063;28;20189;-79
2021/08/06 16:52:57;;;;;;;2.55;1.30;;;;;23.00;99853.00;;;;10533791;28;20595;-79
2021/08/06 16:57:58;;;;;;;3.97;1.60;;;;;22.40;99845.00;;;;10501196;28;20201;-79
2021/08/06 17:03:03;;;;;;;3.25;1.65;;;;;22.00;99850.00;;;;10484202;28;20628;-79
2021/08/06 17:08:05;;;;;;;4.45;2.05;;;;;22.00;99857.00;;;;10516481;28;20201;-79
2021/08/06 17:13:08;;;;;;;4.65;1.58;;;;;21.80;99860.00;;;;10516610;28;20189;-79
2021/08/06 17:18:10;;;;;;;3.92;1.40;;;;;21.60;99860.00;;;;10498580;28;20212;-79
2021/08/06 17:23:12;;;;;;;8.23;1.60;;;;;21.50;99867.00;;;;10516510;28;20196;-78
2021/08/06 17:28:14;;;;;;;4.22;1.70;;;;;21.70;99857.00;;;;10515870;28;20192;-79
2021/08/06 17:33:16;;;;;;;4.18;1.95;;;;;21.80;99861.00;;;;10498741;28;20216;-79
2021/08/06 17:38:18;;;;;;;7.88;1.85;;;;;21.90;99857.00;;;;10515344;28;20219;-79
2021/08/06 17:43:20;;;;;;;5.10;1.77;;;;;21.90;99863.00;;;;10556184;28;20540;-79
2021/08/06 17:48:23;;;;;;;6.82;1.63;;;;;21.80;99864.00;;;;10555605;28;20192;-78
2021/08/06 17:53:25;;;;;;;4.60;1.98;;;;;21.80;99873.00;;;;10530559;28;20197;-79
2021/08/06 17:58:27;;;;;;;5.28;1.80;;;;;21.70;99883.00;;;;10497139;28;20213;-79
2021/08/06 18:03:28;;;;;;;2.80;1.60;;;;;21.50;99879.00;;;;10530381;28;20189;-79
2021/08/06 18:08:31;;;;;;;2.97;1.70;;;;;21.40;99873.00;;;;10496772;28;20283;-80
2021/08/06 18:13:33;;;;;;;4.20;1.92;;;;;21.30;99883.00;;;;10514027;28;20212;-78
2021/08/06 18:18:35;;;;;;;5.50;1.85;;;;;21.20;99889.00;;;;10512420;28;20200;-79
2021/08/06 18:23:37;;;;;;;3.92;1.70;;;;;20.90;99891.00;;;;10495756;28;20660;-79
2021/08/06 18:28:39;;;;;;;5.45;2.00;;;;;20.60;99891.00;;;;10513161;28;20564;-79
2021/08/06 18:33:40;;;;;;;5.97;1.70;;;;;20.30;99894.00;;;;10495520;28;20217;-79
2021/08/06 18:38:42;;;;;;;6.43;2.00;;;;;20.10;99896.00;;;;10496125;28;20202;-79
2021/08/06 18:43:44;;;;;;;3.50;1.95;;;;;19.90;99890.00;;;;10500404;28;20201;-79
2021/08/06 18:48:46;;;;;;;3.50;2.05;;;;;19.60;99898.00;;;;10511221;28;20200;-79
2021/08/06 18:53:48;;;;;;;5.70;1.63;;;;;19.30;99892.00;;;;10524039;27;20203;-79
2021/08/06 18:58:51;;;;;;;4.70;1.95;;;;;19.10;99907.00;;;;10552846;28;20238;-78
2021/08/06 19:03:53;;;;;;;5.15;2.00;;;;;18.90;99915.00;;;;10527488;28;20284;-79
2021/08/06 19:08:55;;;;;;;5.13;1.80;;;;;18.70;99920.00;;;;10528374;28;20205;-78
2021/08/06 19:13:58;;;;;;;4.20;1.70;;;;;18.60;99928.00;;;;10477851;28;20557;-78
2021/08/06 19:19:00;;;;;;;5.20;1.73;;;;;18.60;99929.00;;;;10510573;28;20195;-78
2021/08/06 19:24:03;;;;;;;4.63;1.77;;;;;18.50;99933.00;;;;10527437;28;20211;-79
2021/08/06 19:29:05;;;;;;;7.22;2.17;;;;;18.40;99928.00;;;;10510298;28;20579;-79
2021/08/06 19:34:07;;;;;;;2.75;1.40;;;;;18.30;99933.00;;;;10527102;28;20235;-78
2021/08/06 19:39:08;;;;;;;5.38;2.10;;;;;18.30;99943.00;;;;10527516;28;20185;-79
2021/08/06 19:44:10;;;;;;;3.08;1.75;;;;;18.40;99952.00;;;;10509930;28;20555;-79
2021/08/06 19:49:21;;;;;;;4.25;1.70;;;;;18.50;99960.00;;;;10493859;28;20580;-79
2021/08/06 19:54:25;;;;;;;5.13;2.20;;;;;18.40;99966.00;;;;10553501;27;20214;-79
2021/08/06 19:59:27;;;;;;;5.85;2.58;;;;;18.10;99963.00;;;;10581207;27;20249;-79
2021/08/06 20:04:29;;;;;;;2.75;2.22;;;;;17.80;99958.00;;;;10617319;27;20184;-79
2021/08/06 20:09:31;;;;;;;4.47;2.50;;;;;17.70;99965.00;;;;10598127;27;20191;-79
2021/08/06 20:14:33;;;;;;;4.97;2.47;;;;;17.50;99975.00;;;;10596642;27;20290;-79
2021/08/06 20:19:36;;;;;;;3.97;2.47;;;;;17.40;99966.00;;;;10597913;28;20226;-79
2021/08/06 20:24:38;;;;;;;6.75;2.85;;;;;17.20;99962.00;;;;10578964;28;20718;-81
2021/08/06 20:29:41;;;;;;;6.45;2.17;;;;;16.80;99949.00;;;;10554477;28;20199;-81
2021/08/06 20:34:42;;;;;;;2.97;1.77;;;;;16.70;99928.00;;;;10570838;28;20222;-81
2021/08/06 20:39:44;;;;;;;6.57;2.00;;;;;16.50;99937.00;;;;10555229;28;20223;-80
2021/08/06 20:44:46;;;;;;;5.45;1.70;;;;;16.40;99936.00;;;;10551067;28;20333;-80
2021/08/06 20:49:48;;;;;;;4.57;1.85;;;;;16.40;99935.00;;;;10532226;28;20295;-80
2021/08/06 20:54:50;;;;;;;3.75;1.90;;;;;16.30;99942.00;;;;10542448;28;20216;-79
2021/08/06 20:59:52;;;;;;;5.82;2.40;;;;;16.30;99947.00;;;;10562876;28;20762;-80
2021/08/06 21:04:54;;;;;;;6.55;2.92;;;;;16.30;99965.00;;;;10562609;28;20180;-80
2021/08/06 21:09:56;;;;;;;10.23;3.13;;;;;16.40;99960.00;;;;10561597;28;20235;-80
2021/08/06 21:14:58;;;;;;;6.80;2.67;;;;;16.40;99971.00;;;;10581120;28;20234;-80
2021/08/06 21:20:00;;;;;;;9.52;2.67;;;;;16.40;99968.00;;;;10546956;28;20211;-80
2021/08/06 21:25:02;;;;;;;6.03;3.15;;;;;16.40;99963.00;;;;10569353;27;20207;-80
2021/08/06 21:30:05;;;;;;;5.47;2.53;;;;;16.40;99951.00;;;;10603861;27;20195;-80
2021/08/06 21:35:08;;;;;;;7.72;3.17;;;;;16.40;99948.00;;;;10591186;27;20275;-80
2021/08/06 21:40:12;;;;;;;5.03;3.17;;;;;16.40;99950.00;;;;10571103;27;20657;-79
2021/08/06 21:45:14;;;;;;;7.40;3.08;;;;;16.50;99947.00;;;;10602182;27;20552;-80
2021/08/06 21:50:17;;;;;;;9.55;3.60;;;;;16.50;99953.00;;;;10603194;27;20200;-81
2021/08/06 21:55:18;;;;;;;8.05;2.90;;;;;16.50;99962.00;;;;10559667;27;20215;-80
2021/08/06 22:00:20;;;;;;;5.07;2.93;;;;;16.40;99970.00;;;;10560819;28;20192;-79
2021/08/06 22:05:22;;;;;;;6.35;2.78;;;;;16.40;99959.00;;;;10542928;28;20246;-79
2021/08/06 22:10:25;;;;;;;5.40;2.80;;;;;16.30;99968.00;;;;10558420;28;20598;-80
2021/08/06 22:15:27;;;;;;;5.27;2.87;;;;;16.30;99962.00;;;;10556807;28;20216;-80
2021/08/06 22:20:29;;;;;;;3.60;2.70;;;;;16.30;99960.00;;;;10556534;28;20274;-80
2021/08/06 22:25:31;;;;;;;4.88;3.42;;;;;16.20;99976.00;;;;10555975;28;20185;-79
2021/08/06 22:30:33;;;;;;;6.70;2.80;;;;;16.20;99974.00;;;;10523888;28;20190;-80
2021/08/06 22:35:35;;;;;;;4.50;2.87;;;;;16.10;99970.00;;;;10541110;28;20223;-79
2021/08/06 22:40:38;;;;;;;7.03;2.87;;;;;16.10;99975.00;;;;10541293;28;20623;-79
2021/08/06 22:45:40;;;;;;;10.88;3.30;;;;;16.10;99978.00;;;;10557955;28;20610;-79
2021/08/06 22:50:42;;;;;;;8.67;3.57;;;;;16.20;99979.00;;;;10539931;28;20185;-79
2021/08/06 22:55:44;;;;;;;9.25;3.30;;;;;16.20;99979.00;;;;10532620;28;20208;-79
2021/08/06 23:00:46;;;;;;;10.27;3.97;;;;;16.20;99968.00;;;;10497900;28;20189;-80
2021/08/06 23:05:49;;;;;;;5.27;3.07;;;;;16.20;99966.00;;;;10519366;28;20184;-80
2021/08/06 23:10:50;;;;;;;7.40;3.10;;;;;16.20;99959.00;;;;10555472;28;20195;-80
2021/08/06 23:15:52;;;;;;;6.00;2.73;;;;;16.20;99963.00;;;;10555900;28;20211;-79
2021/08/06 23:20:55;;;;;;;8.77;3.33;;;;;16.20;99967.00;;;;10554754;28;20184;-80
2021/08/06 23:25:57;;;;;;;11.37;4.40;;;;;16.20;99967.00;;;;10575653;27;20213;-80
2021/08/06 23:30:59;;;;;;;9.35;4.50;;;;;16.20;99961.00;;;;10494696;28;20193;-80
2021/08/06 23:36:03;;;;;;;10.30;5.07;;;;;16.20;99955.00;;;;10510599;28;20743;-80
2021/08/06 23:41:05;;;;;;;12.93;4.75;;;;;16.10;99956.00;;;;10494741;28;20185;-80
2021/08/06 23:46:07;;;;;;;5.50;3.80;;;;;16.00;99957.00;;;;10528798;28;20192;-80
2021/08/06 23:51:09;;;;;;;10.00;4.43;;;;;15.80;99945.00;;;;10511863;28;20280;-80
2021/08/06 23:56:11;;;;;;;8.90;4.15;;;;;15.70;99947.00;;;;10528420;28;20278;-80
